CSH9180 ZSPD-ZYCC
Flight info
| Callsign | CSH9180 |
|---|---|
| Flight time | N/A |
| Altitude | 31100 |
| Route | IBEGI B221 XDX DCT URBAD W172 IGDEG W173 NIXEP W8 DOBGA W202 UDETI A588 LEMOT |
| Aircraft | B738/M-SDE2E3FGHIRWXY/LB1 |
Departure
| Time | 2026-04-30 14:17 |
|---|---|
| Airport | Shanghai Pudong International Airport (ZSPD) |
Arrival
| Time | N/A |
|---|---|
| Airport | Changchun Longjia International Airport (ZYCC) |
| Time | Latitude | Longitude | Altitude | Speed | Heading |
|---|---|---|---|---|---|
| 2026-04-30 13:39 | 31.13969 | 121.80292 | 22 ft | 0 kts | 252° |
| 2026-04-30 13:43 | 31.13969 | 121.80293 | 22 ft | 0 kts | 252° |
| 2026-04-30 13:59 | 31.13972 | 121.80301 | 22 ft | 2 kts | 251° |
| 2026-04-30 14:00 | 31.13976 | 121.80320 | 22 ft | 2 kts | 255° |
| 2026-04-30 14:00 | 31.13981 | 121.80357 | 26 ft | 2 kts | 279° |
| 2026-04-30 14:00 | 31.13974 | 121.80374 | 25 ft | 2 kts | 336° |
| 2026-04-30 14:01 | 31.13967 | 121.80376 | 23 ft | 0 kts | 342° |
| 2026-04-30 14:09 | 31.14027 | 121.80354 | 22 ft | 9 kts | 342° |
| 2026-04-30 14:10 | 31.14096 | 121.80326 | 22 ft | 9 kts | 324° |
| 2026-04-30 14:10 | 31.14105 | 121.80258 | 22 ft | 10 kts | 253° |
| 2026-04-30 14:10 | 31.14075 | 121.80150 | 23 ft | 17 kts | 252° |
| 2026-04-30 14:10 | 31.14032 | 121.79997 | 23 ft | 21 kts | 252° |
| 2026-04-30 14:11 | 31.13983 | 121.79819 | 22 ft | 21 kts | 252° |
| 2026-04-30 14:11 | 31.13998 | 121.79732 | 22 ft | 11 kts | 333° |
| 2026-04-30 14:11 | 31.14097 | 121.79693 | 22 ft | 19 kts | 342° |
| 2026-04-30 14:11 | 31.14243 | 121.79638 | 22 ft | 25 kts | 342° |
| 2026-04-30 14:12 | 31.14420 | 121.79571 | 22 ft | 27 kts | 342° |
| 2026-04-30 14:12 | 31.14598 | 121.79504 | 23 ft | 26 kts | 342° |
| 2026-04-30 14:12 | 31.14764 | 121.79441 | 22 ft | 24 kts | 342° |
| 2026-04-30 14:12 | 31.14921 | 121.79382 | 22 ft | 23 kts | 342° |
| 2026-04-30 14:13 | 31.15095 | 121.79316 | 22 ft | 27 kts | 342° |
| 2026-04-30 14:13 | 31.15274 | 121.79249 | 23 ft | 26 kts | 342° |
| 2026-04-30 14:13 | 31.15444 | 121.79185 | 23 ft | 25 kts | 342° |
| 2026-04-30 14:13 | 31.15601 | 121.79125 | 22 ft | 23 kts | 342° |
| 2026-04-30 14:14 | 31.15755 | 121.79067 | 24 ft | 25 kts | 342° |
| 2026-04-30 14:14 | 31.15929 | 121.79002 | 22 ft | 26 kts | 342° |
| 2026-04-30 14:14 | 31.16092 | 121.78940 | 23 ft | 24 kts | 342° |
| 2026-04-30 14:14 | 31.16176 | 121.78886 | 23 ft | 8 kts | 287° |
| 2026-04-30 14:15 | 31.16166 | 121.78813 | 24 ft | 11 kts | 252° |
| 2026-04-30 14:15 | 31.16134 | 121.78696 | 23 ft | 18 kts | 251° |
| 2026-04-30 14:15 | 31.16104 | 121.78622 | 21 ft | 6 kts | 218° |
| 2026-04-30 14:15 | 31.16064 | 121.78621 | 21 ft | 6 kts | 161° |
| 2026-04-30 14:16 | 31.16017 | 121.78639 | 21 ft | 12 kts | 161° |
| 2026-04-30 14:16 | 31.15735 | 121.78746 | 22 ft | 75 kts | 162° |
| 2026-04-30 14:16 | 31.15047 | 121.79006 | 24 ft | 130 kts | 162° |
| 2026-04-30 14:16 | 31.14065 | 121.79381 | 198 ft | 157 kts | 161° |
| 2026-04-30 14:17 | 31.13010 | 121.79783 | 677 ft | 165 kts | 163° |
| 2026-04-30 14:17 | 31.11912 | 121.80202 | 1289 ft | 167 kts | 165° |
| 2026-04-30 14:17 | 31.10764 | 121.80597 | 1768 ft | 177 kts | 166° |